(°C)
11°
11°
11°
11°
10°
10°
10°
(°C)
ΒΒΑ
Β
ΒΒΔ
ΒΔ
Δ
Δ
ΔΒΔ
(χλμ / ω)
10-12
10-13
12-18
14-26
17-32
20-34
18-29
(χιλιοστά)
3
3
2
2.2
3
2.5
1.4
(%)
99
99
99
99
99
99
99

Ανύψωση ήλιου

/ -12.4°
sun-icon
UV 4
04:00
20:55
Φθίνων αμφίκυρτος (φάση σελήνης) (315°)
02:59
16:08

METAR για 55.6°Β 37.27°Α (UUWW)

Χρόνος Συνθήκες Θερμοκρασία/
Σημείο δρόσου
Άνεμος Ορατότητα Καιρός Νέφη Πίεση Αλλαγή Ανεπεξέργαστο
MVFR 11°C / 9°C 40º 16kt 5000m Light Showers Rain 3.00mm precipitation Vertical Visibility of 0ft.
Broken Clouds 3300ft
997 No Significant change. Runway 06: Wet or puddles, 51-100% contamination with 3mm, friction coefficient 0.50. UUWW 262000Z 04008MPS 5000 -SHRA FEW005 BKN033CB 11/09 Q0997 R06/290350 NOSIG
MVFR 11°C / 9°C 70º 14kt 5000m Light Showers Rain 3.00mm precipitation Vertical Visibility of 0ft.
Broken Clouds 2600ft
997 No Significant change. Runway 06: Wet or puddles, 51-100% contamination with 3mm, friction coefficient 0.50. UUWW 261930Z 07007MPS 5000 -SHRA FEW009 BKN026CB 11/09 Q0997 R06/290350 NOSIG
IFR 11°C / 9°C 60º 16kt 4600m Light Showers Rain 3.00mm precipitation Vertical Visibility of 0ft.
Broken Clouds 3000ft
998 No Significant change. Runway 06: Wet or puddles, 51-100% contamination with 3mm, friction coefficient 0.50. UUWW 261900Z 06008MPS 4600 -SHRA FEW008 BKN030CB 11/09 Q0998 R06/290350 NOSIG
MVFR 11°C / 9°C 60º 14kt 8000m Light Showers Rain 3.00mm precipitation Vertical Visibility of 0ft.
Broken Clouds 3000ft
998 No Significant change. Runway 06: Wet or puddles, 51-100% contamination with 2mm, friction coefficient 0.50. UUWW 261830Z 06007MPS 8000 -SHRA FEW009 BKN030CB 11/09 Q0998 R06/290250 NOSIG
VFR 12°C / 9°C 50º 14kt >10km Light Showers Rain 3.00mm precipitation Vertical Visibility of 0ft. 999 No Significant change. Runway 06: Wet or puddles, 51-100% contamination with 2mm, friction coefficient 0.50. UUWW 261800Z 05007MPS 9999 -SHRA BKN050CB 12/09 Q0999 R06/290250 NOSIG
VFR 12°C / 8°C 70º 8kt >10km Light Showers Rain 3.00mm precipitation Vertical Visibility of 0ft. 1000 No Significant change. Runway 24: Wet or puddles, 51-100% contamination with 2mm, friction coefficient 0.50. UUWW 261730Z 07004MPS 9999 -SHRA BKN050CB 12/08 Q1000 R24/290250 NOSIG
VFR 12°C / 8°C 100º 4kt >10km Light Showers Rain 3.00mm precipitation Vertical Visibility of 0ft. 1000 No Significant change. Runway 24: Wet or puddles, 51-100% contamination with <1mm, friction coefficient 0.50. UUWW 261700Z 10002MPS 9999 -SHRA BKN050CB 12/08 Q1000 R24/290050 NOSIG
VFR 13°C / 8°C 150º 4kt >10km Light Showers Rain 3.00mm precipitation Vertical Visibility of 0ft. 1001 No Significant change. Runway 24: Wet or puddles, 51-100% contamination with <1mm, friction coefficient 0.50. UUWW 261630Z 15002MPS 9999 -SHRA BKN050CB 13/08 Q1001 R24/290050 NOSIG
VFR 14°C / 6°C 180º 6kt >10km Light Showers Rain 3.00mm precipitation Vertical Visibility of 0ft. 1002 No Significant change. Runway 24: Wet or puddles, 51-100% contamination with <1mm, friction coefficient 0.50. UUWW 261600Z 18003MPS 9999 -SHRA BKN050CB 14/06 Q1002 R24/290050 NOSIG
VFR 16°C / 3°C 140º variable 100º to 170º 4kt >10km Light Showers Rain 3.00mm precipitation Vertical Visibility of 0ft. 1002 No Significant change. Runway 24: Wet or puddles, 51-100% contamination with <1mm, friction coefficient 0.50. UUWW 261530Z 14002MPS 100V170 9999 -SHRA BKN050CB 16/03 Q1002 R24/290050 NOSIG
VFR 17°C / 2°C 180º 6kt. Wind Shear present on Runway 24. >10km Light Showers Rain 3.00mm precipitation Vertical Visibility of 0ft. 1002 No Significant change. Runway 24: Wet or puddles, 51-100% contamination with <1mm, friction coefficient 0.50. UUWW 261500Z 18003MPS 9999 -SHRA BKN050CB 17/02 Q1002 WS R24 R24/290050 NOSIG
VFR 18°C / 3°C 180º variable 110º to 220º 8kt Gust 17kt >10km - Clouds and Visibility OK 1002 No Significant change. Runway 06: Damp, 51-100% contamination with <1mm, friction coefficient 0.60. UUWW 261430Z 18004G09MPS 110V220 CAVOK 18/03 Q1002 R06/190060 NOSIG
VFR 18°C / 4°C 140º 6kt >10km - Clouds and Visibility OK 1002 No Significant change UUWW 261400Z 14003MPS CAVOK 18/04 Q1002 R19/000070 NOSIG
VFR 18°C / 3°C 170º 6kt >10km - Clouds and Visibility OK 1003 No Significant change UUWW 261330Z 17003MPS CAVOK 18/03 Q1003 R19/000070 NOSIG
VFR 18°C / 3°C 170º 12kt >10km - Clouds and Visibility OK 1003 No Significant change UUWW 261300Z 17006MPS CAVOK 18/03 Q1003 R19/000070 NOSIG
VFR 19°C / 3°C 180º 12kt >10km - Clouds and Visibility OK 1004 No Significant change UUWW 261230Z 18006MPS CAVOK 19/03 Q1004 R19/000070 NOSIG
VFR 19°C / 3°C 150º variable 110º to 190º 8kt >10km - Clouds and Visibility OK 1004 No Significant change UUWW 261200Z 15004MPS 110V190 CAVOK 19/03 Q1004 R19/000070 NOSIG
VFR 19°C / 3°C 170º 6kt >10km - Clouds and Visibility OK 1005 No Significant change UUWW 261130Z 17003MPS CAVOK 19/03 Q1005 R19/000070 NOSIG
VFR 19°C / 3°C 160º variable 120º to 220º 6kt >10km - Clouds and Visibility OK 1005 No Significant change UUWW 261100Z 16003MPS 120V220 CAVOK 19/03 Q1005 R19/000070 NOSIG
VFR 19°C / 3°C 200º 6kt >10km - Clouds and Visibility OK 1005 No Significant change UUWW 261030Z 20003MPS CAVOK 19/03 Q1005 R19/000070 NOSIG
VFR 19°C / 2°C 210º variable 180º to 260º 8kt >10km - Clouds and Visibility OK 1006 No Significant change UUWW 261000Z 21004MPS 180V260 CAVOK 19/02 Q1006 R19/000070 NOSIG
VFR 19°C / 2°C 200º 6kt >10km - Clouds and Visibility OK 1006 No Significant change UUWW 260930Z 20003MPS CAVOK 19/02 Q1006 R19/000070 NOSIG
VFR 18°C / 1°C 230º variable 180º to 260º 8kt >10km - Clouds and Visibility OK 1007 No Significant change UUWW 260900Z 23004MPS 180V260 CAVOK 18/01 Q1007 R19/000070 NOSIG
VFR 18°C / 2°C 170º variable 140º to 220º 6kt >10km - Clouds and Visibility OK 1007 No Significant change UUWW 260830Z 17003MPS 140V220 CAVOK 18/02 Q1007 R19/000070 NOSIG

MVFR

11°C / 9°C

[Περισσότερο]
Άνεμος 40º 16kt
Ορατότητα 5000m
Καιρός Light Showers Rain 3.00mm precipitation
Νέφη Vertical Visibility of 0ft.
Broken Clouds 3300ft
Πίεση 997
Αλλαγή No Significant change. Runway 06: Wet or puddles, 51-100% contamination with 3mm, friction coefficient 0.50.
Ανεπεξέργαστο UUWW 262000Z 04008MPS 5000 -SHRA FEW005 BKN033CB 11/09 Q0997 R06/290350 NOSIG

MVFR

11°C / 9°C

[Περισσότερο]
Άνεμος 70º 14kt
Ορατότητα 5000m
Καιρός Light Showers Rain 3.00mm precipitation
Νέφη Vertical Visibility of 0ft.
Broken Clouds 2600ft
Πίεση 997
Αλλαγή No Significant change. Runway 06: Wet or puddles, 51-100% contamination with 3mm, friction coefficient 0.50.
Ανεπεξέργαστο UUWW 261930Z 07007MPS 5000 -SHRA FEW009 BKN026CB 11/09 Q0997 R06/290350 NOSIG

IFR

11°C / 9°C

[Περισσότερο]
Άνεμος 60º 16kt
Ορατότητα 4600m
Καιρός Light Showers Rain 3.00mm precipitation
Νέφη Vertical Visibility of 0ft.
Broken Clouds 3000ft
Πίεση 998
Αλλαγή No Significant change. Runway 06: Wet or puddles, 51-100% contamination with 3mm, friction coefficient 0.50.
Ανεπεξέργαστο UUWW 261900Z 06008MPS 4600 -SHRA FEW008 BKN030CB 11/09 Q0998 R06/290350 NOSIG

MVFR

11°C / 9°C

[Περισσότερο]
Άνεμος 60º 14kt
Ορατότητα 8000m
Καιρός Light Showers Rain 3.00mm precipitation
Νέφη Vertical Visibility of 0ft.
Broken Clouds 3000ft
Πίεση 998
Αλλαγή No Significant change. Runway 06: Wet or puddles, 51-100% contamination with 2mm, friction coefficient 0.50.
Ανεπεξέργαστο UUWW 261830Z 06007MPS 8000 -SHRA FEW009 BKN030CB 11/09 Q0998 R06/290250 NOSIG

VFR

12°C / 9°C

[Περισσότερο]
Άνεμος 50º 14kt
Ορατότητα >10km
Καιρός Light Showers Rain 3.00mm precipitation
Νέφη Vertical Visibility of 0ft.
Πίεση 999
Αλλαγή No Significant change. Runway 06: Wet or puddles, 51-100% contamination with 2mm, friction coefficient 0.50.
Ανεπεξέργαστο UUWW 261800Z 05007MPS 9999 -SHRA BKN050CB 12/09 Q0999 R06/290250 NOSIG

VFR

12°C / 8°C

[Περισσότερο]
Άνεμος 70º 8kt
Ορατότητα >10km
Καιρός Light Showers Rain 3.00mm precipitation
Νέφη Vertical Visibility of 0ft.
Πίεση 1000
Αλλαγή No Significant change. Runway 24: Wet or puddles, 51-100% contamination with 2mm, friction coefficient 0.50.
Ανεπεξέργαστο UUWW 261730Z 07004MPS 9999 -SHRA BKN050CB 12/08 Q1000 R24/290250 NOSIG

VFR

12°C / 8°C

[Περισσότερο]
Άνεμος 100º 4kt
Ορατότητα >10km
Καιρός Light Showers Rain 3.00mm precipitation
Νέφη Vertical Visibility of 0ft.
Πίεση 1000
Αλλαγή No Significant change. Runway 24: Wet or puddles, 51-100% contamination with <1mm, friction coefficient 0.50.
Ανεπεξέργαστο UUWW 261700Z 10002MPS 9999 -SHRA BKN050CB 12/08 Q1000 R24/290050 NOSIG

VFR

13°C / 8°C

[Περισσότερο]
Άνεμος 150º 4kt
Ορατότητα >10km
Καιρός Light Showers Rain 3.00mm precipitation
Νέφη Vertical Visibility of 0ft.
Πίεση 1001
Αλλαγή No Significant change. Runway 24: Wet or puddles, 51-100% contamination with <1mm, friction coefficient 0.50.
Ανεπεξέργαστο UUWW 261630Z 15002MPS 9999 -SHRA BKN050CB 13/08 Q1001 R24/290050 NOSIG

VFR

14°C / 6°C

[Περισσότερο]
Άνεμος 180º 6kt
Ορατότητα >10km
Καιρός Light Showers Rain 3.00mm precipitation
Νέφη Vertical Visibility of 0ft.
Πίεση 1002
Αλλαγή No Significant change. Runway 24: Wet or puddles, 51-100% contamination with <1mm, friction coefficient 0.50.
Ανεπεξέργαστο UUWW 261600Z 18003MPS 9999 -SHRA BKN050CB 14/06 Q1002 R24/290050 NOSIG

VFR

16°C / 3°C

[Περισσότερο]
Άνεμος 140º variable 100º to 170º 4kt
Ορατότητα >10km
Καιρός Light Showers Rain 3.00mm precipitation
Νέφη Vertical Visibility of 0ft.
Πίεση 1002
Αλλαγή No Significant change. Runway 24: Wet or puddles, 51-100% contamination with <1mm, friction coefficient 0.50.
Ανεπεξέργαστο UUWW 261530Z 14002MPS 100V170 9999 -SHRA BKN050CB 16/03 Q1002 R24/290050 NOSIG

VFR

17°C / 2°C

[Περισσότερο]
Άνεμος 180º 6kt. Wind Shear present on Runway 24.
Ορατότητα >10km
Καιρός Light Showers Rain 3.00mm precipitation
Νέφη Vertical Visibility of 0ft.
Πίεση 1002
Αλλαγή No Significant change. Runway 24: Wet or puddles, 51-100% contamination with <1mm, friction coefficient 0.50.
Ανεπεξέργαστο UUWW 261500Z 18003MPS 9999 -SHRA BKN050CB 17/02 Q1002 WS R24 R24/290050 NOSIG

VFR

18°C / 3°C

[Περισσότερο]
Άνεμος 180º variable 110º to 220º 8kt Gust 17kt
Ορατότητα >10km
Καιρός -
Νέφη Clouds and Visibility OK
Πίεση 1002
Αλλαγή No Significant change. Runway 06: Damp, 51-100% contamination with <1mm, friction coefficient 0.60.
Ανεπεξέργαστο UUWW 261430Z 18004G09MPS 110V220 CAVOK 18/03 Q1002 R06/190060 NOSIG

VFR

18°C / 4°C

[Περισσότερο]
Άνεμος 140º 6kt
Ορατότητα >10km
Καιρός -
Νέφη Clouds and Visibility OK
Πίεση 1002
Αλλαγή No Significant change
Ανεπεξέργαστο UUWW 261400Z 14003MPS CAVOK 18/04 Q1002 R19/000070 NOSIG

VFR

18°C / 3°C

[Περισσότερο]
Άνεμος 170º 6kt
Ορατότητα >10km
Καιρός -
Νέφη Clouds and Visibility OK
Πίεση 1003
Αλλαγή No Significant change
Ανεπεξέργαστο UUWW 261330Z 17003MPS CAVOK 18/03 Q1003 R19/000070 NOSIG

VFR

18°C / 3°C

[Περισσότερο]
Άνεμος 170º 12kt
Ορατότητα >10km
Καιρός -
Νέφη Clouds and Visibility OK
Πίεση 1003
Αλλαγή No Significant change
Ανεπεξέργαστο UUWW 261300Z 17006MPS CAVOK 18/03 Q1003 R19/000070 NOSIG

VFR

19°C / 3°C

[Περισσότερο]
Άνεμος 180º 12kt
Ορατότητα >10km
Καιρός -
Νέφη Clouds and Visibility OK
Πίεση 1004
Αλλαγή No Significant change
Ανεπεξέργαστο UUWW 261230Z 18006MPS CAVOK 19/03 Q1004 R19/000070 NOSIG

VFR

19°C / 3°C

[Περισσότερο]
Άνεμος 150º variable 110º to 190º 8kt
Ορατότητα >10km
Καιρός -
Νέφη Clouds and Visibility OK
Πίεση 1004
Αλλαγή No Significant change
Ανεπεξέργαστο UUWW 261200Z 15004MPS 110V190 CAVOK 19/03 Q1004 R19/000070 NOSIG

VFR

19°C / 3°C

[Περισσότερο]
Άνεμος 170º 6kt
Ορατότητα >10km
Καιρός -
Νέφη Clouds and Visibility OK
Πίεση 1005
Αλλαγή No Significant change
Ανεπεξέργαστο UUWW 261130Z 17003MPS CAVOK 19/03 Q1005 R19/000070 NOSIG

VFR

19°C / 3°C

[Περισσότερο]
Άνεμος 160º variable 120º to 220º 6kt
Ορατότητα >10km
Καιρός -
Νέφη Clouds and Visibility OK
Πίεση 1005
Αλλαγή No Significant change
Ανεπεξέργαστο UUWW 261100Z 16003MPS 120V220 CAVOK 19/03 Q1005 R19/000070 NOSIG

VFR

19°C / 3°C

[Περισσότερο]
Άνεμος 200º 6kt
Ορατότητα >10km
Καιρός -
Νέφη Clouds and Visibility OK
Πίεση 1005
Αλλαγή No Significant change
Ανεπεξέργαστο UUWW 261030Z 20003MPS CAVOK 19/03 Q1005 R19/000070 NOSIG

VFR

19°C / 2°C

[Περισσότερο]
Άνεμος 210º variable 180º to 260º 8kt
Ορατότητα >10km
Καιρός -
Νέφη Clouds and Visibility OK
Πίεση 1006
Αλλαγή No Significant change
Ανεπεξέργαστο UUWW 261000Z 21004MPS 180V260 CAVOK 19/02 Q1006 R19/000070 NOSIG

VFR

19°C / 2°C

[Περισσότερο]
Άνεμος 200º 6kt
Ορατότητα >10km
Καιρός -
Νέφη Clouds and Visibility OK
Πίεση 1006
Αλλαγή No Significant change
Ανεπεξέργαστο UUWW 260930Z 20003MPS CAVOK 19/02 Q1006 R19/000070 NOSIG

VFR

18°C / 1°C

[Περισσότερο]
Άνεμος 230º variable 180º to 260º 8kt
Ορατότητα >10km
Καιρός -
Νέφη Clouds and Visibility OK
Πίεση 1007
Αλλαγή No Significant change
Ανεπεξέργαστο UUWW 260900Z 23004MPS 180V260 CAVOK 18/01 Q1007 R19/000070 NOSIG

VFR

18°C / 2°C

[Περισσότερο]
Άνεμος 170º variable 140º to 220º 6kt
Ορατότητα >10km
Καιρός -
Νέφη Clouds and Visibility OK
Πίεση 1007
Αλλαγή No Significant change
Ανεπεξέργαστο UUWW 260830Z 17003MPS 140V220 CAVOK 18/02 Q1007 R19/000070 NOSIG

TAF για 55.6°Β 37.27°Α (UUWW)

From till


Maximum Temperature 15ºC on . Minimum Temperature 9ºC on .
From till Wind 40º 10kt. Gust 19kt. Visibility 8000m. Broken Clouds 2000ft.
With 40% probability, Temporarly from till Light Thunderstorm Rain . Broken Clouds 1200ft.
Temporarly from till Visibility 2100m. Light Showers Rain . Broken Clouds 400ft. Broken Clouds 1600ft.
Becoming from till Wind 290º 16kt. Gust 29kt. Visibility 8000m. Broken Clouds 2000ft.
Temporarly from till Light Showers Rain . Broken Clouds 1500ft.
Becoming from till Wind 210º 6kt. Visibility 8000m. Broken Clouds 2000ft.

Ανεπεξέργαστο: TAF UUWW 261957Z 2621/2721 04005G10MPS 8000 BKN020 TX15/2712Z TN09/2702Z TEMPO 2621/2702 2100 -SHRA BKN004 BKN016CB PROB40 TEMPO 2621/2701 -TSRA BKN012CB BECMG 2700/2702 29008G15MPS TEMPO 2702/2716 -SHRA BKN015CB BECMG 2716/2718 21003MPS

Ραντάρ και πρόγνωση υετού μικρής διάρκειας για 55.6°Β 37.27°Α

Ψιλοβρέχει
Φως
Μέτρια
Βαριά
Πολύ βαρύ
Χαλάζι

Ο δείκτης θέσης τοποθετείται στο 55.6°Β 37.27°Α. Αυτή η κινούμενη εικόνα δείχνει την ραντάρ βροχόπτωσης για την τελευταία ώρα, καθώς και 1πρόγνωση h. Το ψιλόβροχο ή το ελαφρύ χιόνι μπορεί να είναι αόρατο για το ραντάρ. Η ένταση της βροχόπτωσης είναι χρωματικά κωδικοποιημένη και κυμαίνεται από γαλάζιο έως πορτοκαλί.

Τρέχουσες εικόνες δορυφόρου και βροχής για 55.6°Β 37.27°Α

Η ένδειξη τοποθεσίας τοποθετείται στο 55.6°Β 37.27°Α. [Περισσότερο]

Οι δορυφορικές εικόνες σε πραγματικό χρόνο συνδυάζουν ορατό φως κατά τη διάρκεια της ημέρας με υπέρυθρη ακτινοβολία κατά τη διάρκεια της νύχτας. Κατά τη διάρκεια της νύχτας, η εικόνα δεν είναι σκοτεινή μιας και η υπέρυθρη ακτινοβολία μπορεί να εντοπίσει τις διαφορές στη θερμοκρασία. Δυστυχώς, είναι δύσκολο να ξεχωρίσουν οι χαμηλές νεφώσεις και η ομίχλη από τις θερμοκρασίες εδάφους και έτσι μπορεί να είναι σχετικά αόρατα κατά τη διάρκεια της νύχτας. Οι εικόνες από τον δορυφόρο Meteosat για την Ευρώπη ενημερώνονται σε πραγματικό χρόνο κάθε 5 λεπτά. Οι εικόνες από τους δορυφόρους GOES-16/GOES-17 (Βόρεια & Λατινική Αμερική) και Himawari (Ασία) ενημερώνονται κάθε 10 λεπτά.

Πνευματική ιδιοκτησία 2022 EUMETSAT / meteoblue. / Πνευματική ιδιοκτησία 2022 meteoblue

Επιστροφή στην κορυφή